createdAt,value
2022-07-27T00:01:29.990Z,19.00
2022-07-27T00:03:59.483Z,19.50
2022-07-27T00:06:28.959Z,18.75
2022-07-27T00:08:58.460Z,19.50
2022-07-27T00:11:28.110Z,18.50
2022-07-27T00:13:57.515Z,18.00
2022-07-27T00:16:27.401Z,19.00
2022-07-27T00:18:58.012Z,18.00
2022-07-27T00:21:28.166Z,18.25
2022-07-27T00:23:58.570Z,17.50
2022-07-27T00:26:28.385Z,18.50
2022-07-27T00:28:58.260Z,19.50
2022-07-27T00:31:28.216Z,19.00
2022-07-27T00:33:57.701Z,19.00
2022-07-27T00:36:27.289Z,16.00
2022-07-27T00:38:56.873Z,15.75
2022-07-27T00:41:26.454Z,17.00
2022-07-27T00:43:57.270Z,17.25
2022-07-27T00:46:27.306Z,15.75
2022-07-27T00:48:57.044Z,17.75
2022-07-27T00:51:27.308Z,16.75
2022-07-27T00:53:57.267Z,19.75
2022-07-27T00:56:27.458Z,19.00
2022-07-27T00:58:57.341Z,20.00
2022-07-27T01:01:27.031Z,19.75
2022-07-27T01:03:56.780Z,20.00
2022-07-27T01:06:27.495Z,20.25
2022-07-27T01:09:17.363Z,19.75
2022-07-27T01:11:49.642Z,20.00
2022-07-27T01:14:19.628Z,20.00
2022-07-27T01:16:50.197Z,19.00
2022-07-27T01:19:20.204Z,21.25
2022-07-27T01:21:50.087Z,21.00
2022-07-27T01:24:20.184Z,21.00
2022-07-27T01:26:50.264Z,21.00
2022-07-27T01:29:20.028Z,22.00
2022-07-27T01:31:49.916Z,23.00
2022-07-27T01:34:19.922Z,21.25
2022-07-27T01:36:50.023Z,21.25
2022-07-27T01:39:20.930Z,23.00
2022-07-27T01:41:50.722Z,21.50
2022-07-27T01:44:20.588Z,23.00
2022-07-27T01:46:50.470Z,20.00
2022-07-27T01:49:20.772Z,21.75
2022-07-27T01:51:50.822Z,21.00
2022-07-27T01:54:20.783Z,20.75
2022-07-27T01:56:50.626Z,22.25
2022-07-27T01:59:20.424Z,22.00
2022-07-27T02:01:50.437Z,19.00
2022-07-27T02:04:25.031Z,21.25
2022-07-27T02:06:56.736Z,21.00
2022-07-27T02:09:27.519Z,21.25
2022-07-27T02:12:15.366Z,21.00
2022-07-27T02:14:45.479Z,22.00
2022-07-27T02:17:16.017Z,22.25
2022-07-27T02:19:49.529Z,22.25
2022-07-27T02:22:20.002Z,21.00
2022-07-27T02:24:50.484Z,21.25
2022-07-27T02:27:20.689Z,22.00
2022-07-27T02:29:50.696Z,21.00
2022-07-27T02:32:20.663Z,21.25
2022-07-27T02:34:50.677Z,21.25
2022-07-27T02:37:20.622Z,20.00
2022-07-27T02:39:50.669Z,19.75
2022-07-27T02:42:20.640Z,21.00
2022-07-27T02:44:50.483Z,19.50
2022-07-27T02:47:20.455Z,21.00
2022-07-27T02:49:57.521Z,20.25
2022-07-27T02:52:27.997Z,17.75
2022-07-27T02:54:58.153Z,20.00
2022-07-27T02:57:28.174Z,19.25
2022-07-27T03:00:28.462Z,21.25
2022-07-27T03:04:13.861Z,21.00
2022-07-27T03:20:01.569Z,20.50
2022-07-27T03:22:38.744Z,20.75
2022-07-27T03:25:11.899Z,20.75
2022-07-27T03:27:48.127Z,21.00
2022-07-27T03:30:50.309Z,21.00
2022-07-27T03:33:49.577Z,20.00
2022-07-27T03:44:41.248Z,22.75
2022-07-27T03:47:22.017Z,22.25
2022-07-27T03:50:07.368Z,24.25
2022-07-27T03:53:05.474Z,23.50
2022-07-27T03:55:38.137Z,22.75
2022-07-27T03:58:33.043Z,25.50
2022-07-27T04:01:25.373Z,24.00
2022-07-27T04:04:00.772Z,22.50
2022-07-27T04:07:01.783Z,24.75
2022-07-27T04:09:59.401Z,23.00
2022-07-27T04:12:29.244Z,24.75
2022-07-27T04:14:59.363Z,25.00
2022-07-27T04:17:56.035Z,23.50
2022-07-27T04:20:19.111Z,23.25
2022-07-27T04:22:49.895Z,23.00
2022-07-27T04:25:19.734Z,25.00
2022-07-27T04:27:50.085Z,25.50
2022-07-27T04:30:21.588Z,23.50
2022-07-27T04:32:51.648Z,25.00
2022-07-27T04:35:26.123Z,24.75
2022-07-27T04:37:58.319Z,26.00
2022-07-27T04:40:33.991Z,24.50
2022-07-27T04:43:05.014Z,25.25
2022-07-27T04:46:05.288Z,25.75
2022-07-27T04:50:34.780Z,26.00
2022-07-27T04:55:31.290Z,25.00
2022-07-27T05:01:04.612Z,23.75
2022-07-27T05:04:08.376Z,26.00
2022-07-27T05:12:48.565Z,26.00
2022-07-27T05:15:55.187Z,26.75
2022-07-27T05:18:26.797Z,26.50
2022-07-27T05:20:56.647Z,25.50
2022-07-27T05:23:26.337Z,26.50
2022-07-27T05:33:02.090Z,24.25
2022-07-27T05:35:41.578Z,28.00
2022-07-27T05:38:18.103Z,27.25
2022-07-27T05:41:02.219Z,28.00
2022-07-27T05:43:48.536Z,28.25
2022-07-27T05:46:19.053Z,26.75
2022-07-27T05:48:52.640Z,28.50
2022-07-27T05:51:23.054Z,28.25
2022-07-27T05:53:53.284Z,27.00
2022-07-27T05:56:23.146Z,27.50
2022-07-27T05:58:55.765Z,28.25
2022-07-27T06:01:26.892Z,29.25
2022-07-27T06:04:06.345Z,27.50
2022-07-27T06:07:25.321Z,28.00
2022-07-27T06:10:13.578Z,28.75
2022-07-27T06:12:44.809Z,28.00
2022-07-27T06:15:15.897Z,29.00
2022-07-27T06:17:54.411Z,28.00
2022-07-27T06:20:25.346Z,28.00
2022-07-27T06:23:07.874Z,28.50
2022-07-27T06:25:38.739Z,28.00
2022-07-27T06:28:12.829Z,29.50
2022-07-27T06:30:44.734Z,27.25
2022-07-27T06:33:17.729Z,28.00
2022-07-27T06:35:47.869Z,27.50
2022-07-27T06:38:20.754Z,28.50
2022-07-27T06:40:54.350Z,29.00
2022-07-27T06:43:26.902Z,28.00
2022-07-27T06:45:57.086Z,29.00
2022-07-27T06:48:28.295Z,27.50
2022-07-27T06:50:58.733Z,29.75
2022-07-27T06:53:29.023Z,29.25
2022-07-27T06:56:06.730Z,30.00
2022-07-27T06:58:39.247Z,30.25
2022-07-27T07:01:09.488Z,30.25
2022-07-27T07:03:41.217Z,29.50
2022-07-27T07:06:11.709Z,30.25
2022-07-27T07:08:41.582Z,31.00
2022-07-27T07:11:13.552Z,30.50
2022-07-27T07:14:26.178Z,29.50
2022-07-27T07:20:09.489Z,29.75
2022-07-27T07:23:08.621Z,29.00
2022-07-27T07:25:57.382Z,29.00
2022-07-27T07:28:40.415Z,29.50
2022-07-27T07:31:22.026Z,29.75
2022-07-27T07:34:01.395Z,29.50
2022-07-27T07:36:51.889Z,29.00
2022-07-27T07:39:22.048Z,29.00
2022-07-27T07:41:52.314Z,28.75
2022-07-27T07:44:22.132Z,29.75
2022-07-27T07:46:55.312Z,29.00
2022-07-27T07:49:37.874Z,29.50
2022-07-27T07:52:10.032Z,28.50
2022-07-27T07:54:40.569Z,29.00
2022-07-27T07:57:10.214Z,28.50
2022-07-27T07:59:40.017Z,29.50
2022-07-27T08:02:09.817Z,30.00
2022-07-27T08:04:39.485Z,28.25
2022-07-27T08:07:09.132Z,31.00
2022-07-27T08:09:38.550Z,31.00
2022-07-27T08:12:08.439Z,30.50
2022-07-27T08:14:38.357Z,30.00
2022-07-27T08:17:08.142Z,32.00
2022-07-27T08:19:40.237Z,29.50
2022-07-27T08:22:10.899Z,31.00
2022-07-27T08:24:42.404Z,28.00
2022-07-27T08:27:12.662Z,32.25
2022-07-27T08:29:42.536Z,30.50
2022-07-27T08:32:12.719Z,29.75
2022-07-27T08:34:42.754Z,31.00
2022-07-27T08:37:15.366Z,30.25
2022-07-27T08:42:39.177Z,31.00
2022-07-27T08:45:11.046Z,30.25
2022-07-27T08:47:52.424Z,30.00
2022-07-27T08:50:26.317Z,30.25
2022-07-27T08:52:58.306Z,29.25
2022-07-27T08:55:30.159Z,29.25
2022-07-27T08:58:03.557Z,31.00
2022-07-27T09:00:37.603Z,30.50
2022-07-27T09:03:07.874Z,28.75
2022-07-27T09:05:43.974Z,31.25
2022-07-27T09:08:16.627Z,31.50
2022-07-27T09:11:13.558Z,30.25
2022-07-27T09:13:49.235Z,31.50
2022-07-27T09:16:20.392Z,30.50
2022-07-27T09:18:51.336Z,29.75
2022-07-27T09:21:24.211Z,30.50
2022-07-27T09:24:02.305Z,29.00
2022-07-27T09:26:38.314Z,28.00
2022-07-27T09:29:24.555Z,29.50
2022-07-27T09:32:50.915Z,28.50
2022-07-27T09:38:38.896Z,29.25
2022-07-27T09:41:51.071Z,29.25
2022-07-27T09:44:42.091Z,27.25
2022-07-27T09:51:03.024Z,27.00
2022-07-27T09:53:57.259Z,25.75
2022-07-27T10:00:32.031Z,26.25
2022-07-27T10:06:06.471Z,26.00
2022-07-27T10:08:40.960Z,24.75
2022-07-27T10:11:11.216Z,25.75
2022-07-27T10:13:44.053Z,25.75
2022-07-27T10:16:16.874Z,24.50
2022-07-27T10:19:25.105Z,23.50
2022-07-27T10:21:58.625Z,26.50
2022-07-27T10:24:35.432Z,25.75
2022-07-27T10:27:20.323Z,24.25
2022-07-27T10:29:51.847Z,23.25
2022-07-27T10:32:30.476Z,23.00
2022-07-27T10:35:03.319Z,19.25
2022-07-27T10:37:55.264Z,18.50
2022-07-27T10:40:58.524Z,16.25
2022-07-27T10:44:27.936Z,16.00
2022-07-27T10:47:10.677Z,11.00
2022-07-27T10:50:02.485Z,9.00
2022-07-27T10:53:13.238Z,6.25
2022-07-27T10:56:11.105Z,7.50
2022-07-27T11:02:11.200Z,4.75
2022-07-27T11:08:46.656Z,6.00
2022-07-27T11:11:39.637Z,3.75
2022-07-27T11:20:39.223Z,3.75
2022-07-27T11:23:50.346Z,3.00
2022-07-27T11:26:17.196Z,4.00
2022-07-27T11:28:47.333Z,6.00
2022-07-27T11:31:32.455Z,4.00
2022-07-27T11:34:08.106Z,2.75
2022-07-27T11:36:39.699Z,3.75
2022-07-27T11:39:44.018Z,3.75
2022-07-27T11:42:18.584Z,5.00
2022-07-27T11:44:55.368Z,4.00
2022-07-27T11:47:33.310Z,3.00
2022-07-27T11:50:15.283Z,4.75
2022-07-27T11:53:01.653Z,3.75
2022-07-27T11:55:35.971Z,4.75
2022-07-27T11:58:11.197Z,3.00
2022-07-27T12:00:49.261Z,5.00
2022-07-27T12:03:46.018Z,5.75
2022-07-27T12:06:14.942Z,5.25
2022-07-27T12:08:52.660Z,4.00
2022-07-27T12:11:34.347Z,6.50
2022-07-27T12:17:43.423Z,4.25
2022-07-27T12:20:47.206Z,4.00
2022-07-27T12:23:49.883Z,4.50
2022-07-27T12:26:39.194Z,4.75
2022-07-27T12:32:23.458Z,4.00
2022-07-27T12:34:56.739Z,3.00
2022-07-27T12:37:34.962Z,3.75
2022-07-27T12:40:15.100Z,4.00
2022-07-27T12:42:45.999Z,4.50
2022-07-27T12:45:18.319Z,3.50
2022-07-27T12:47:49.039Z,4.75
2022-07-27T12:50:21.309Z,3.25
2022-07-27T12:52:53.610Z,4.50
2022-07-27T12:55:24.615Z,5.25
2022-07-27T12:57:58.467Z,6.00
2022-07-27T13:00:34.170Z,5.00
2022-07-27T13:03:07.098Z,5.25
2022-07-27T13:05:38.216Z,6.00
2022-07-27T13:08:08.774Z,6.25
2022-07-27T13:10:39.255Z,4.50
2022-07-27T13:13:15.157Z,5.75
2022-07-27T13:15:45.842Z,4.50
2022-07-27T13:18:19.878Z,5.25
2022-07-27T13:20:55.997Z,7.25
2022-07-27T13:23:29.557Z,7.00
2022-07-27T13:26:02.769Z,5.00
2022-07-27T13:28:33.715Z,4.00
2022-07-27T13:31:03.760Z,7.00
2022-07-27T13:33:33.724Z,6.25
2022-07-27T13:39:27.554Z,7.00
2022-07-27T13:52:25.768Z,6.00
2022-07-27T13:55:28.916Z,6.00
2022-07-27T14:02:23.254Z,4.50
2022-07-27T14:05:34.978Z,7.50
2022-07-27T14:08:09.259Z,6.00
2022-07-27T14:11:01.377Z,5.25
2022-07-27T14:13:34.293Z,5.75
2022-07-27T14:16:05.389Z,6.00
2022-07-27T14:18:36.196Z,6.00
2022-07-27T14:21:10.068Z,6.00
2022-07-27T14:23:40.449Z,6.00
2022-07-27T14:26:11.172Z,3.50
2022-07-27T14:28:43.527Z,6.00
2022-07-27T14:34:56.410Z,4.00
2022-07-27T14:38:07.525Z,4.00
2022-07-27T14:40:37.914Z,7.00
2022-07-27T14:43:09.263Z,4.00
2022-07-27T14:45:44.691Z,5.00
2022-07-27T14:49:06.023Z,4.25
2022-07-27T14:56:07.895Z,4.00
2022-07-27T15:00:03.150Z,5.00
2022-07-27T15:19:19.449Z,3.00
2022-07-27T15:25:28.231Z,2.75
2022-07-27T15:31:04.435Z,3.00
2022-07-27T15:33:34.842Z,3.25
2022-07-27T15:36:05.058Z,3.75
2022-07-27T15:38:40.128Z,3.00
2022-07-27T15:44:46.251Z,3.00
2022-07-27T15:47:24.779Z,2.00
2022-07-27T15:50:04.162Z,2.75
2022-07-27T15:52:44.263Z,3.25
2022-07-27T15:55:25.369Z,4.00
2022-07-27T16:01:15.871Z,3.50
2022-07-27T16:14:13.809Z,2.50
2022-07-27T16:35:24.655Z,2.00
2022-07-27T16:41:43.296Z,1.00
2022-07-27T16:44:50.837Z,3.00
2022-07-27T16:51:52.287Z,2.00
2022-07-27T17:01:34.289Z,2.25
2022-07-27T17:07:14.591Z,2.00
2022-07-27T17:09:44.719Z,2.00
2022-07-27T17:12:17.249Z,2.50
2022-07-27T17:14:48.050Z,2.75
2022-07-27T17:17:17.858Z,2.00
2022-07-27T17:19:47.544Z,2.25
2022-07-27T17:22:17.156Z,2.00
2022-07-27T17:24:47.033Z,3.25
2022-07-27T17:27:16.652Z,2.00
2022-07-27T17:29:46.632Z,3.00
2022-07-27T17:32:16.611Z,2.25
2022-07-27T17:34:47.142Z,1.50
2022-07-27T17:37:17.914Z,3.00
2022-07-27T17:39:47.836Z,2.75
2022-07-27T17:42:17.565Z,2.00
2022-07-27T17:44:47.330Z,2.00
2022-07-27T17:47:17.086Z,2.00
2022-07-27T17:49:47.191Z,2.00
2022-07-27T17:52:16.856Z,2.00
2022-07-27T17:54:48.788Z,3.00
2022-07-27T17:57:18.541Z,2.00
2022-07-27T17:59:48.174Z,2.50
2022-07-27T18:02:20.191Z,2.25
2022-07-27T18:04:50.085Z,2.50
2022-07-27T18:07:19.743Z,3.00
2022-07-27T18:09:49.279Z,2.00
2022-07-27T18:12:22.794Z,2.00
2022-07-27T18:15:10.597Z,2.00
2022-07-27T18:17:42.915Z,1.25
2022-07-27T18:20:12.769Z,2.75
2022-07-27T18:22:42.193Z,2.00
2022-07-27T18:25:11.983Z,2.00
2022-07-27T18:27:42.238Z,2.25
2022-07-27T18:30:13.529Z,2.50
2022-07-27T18:32:44.279Z,2.25
2022-07-27T18:35:14.237Z,2.00
2022-07-27T18:37:43.714Z,3.50
2022-07-27T18:40:13.595Z,2.50
2022-07-27T18:42:43.248Z,3.00
2022-07-27T18:45:12.764Z,1.00
2022-07-27T18:47:42.075Z,2.00
2022-07-27T18:50:19.311Z,2.50
2022-07-27T18:52:48.753Z,3.50
2022-07-27T18:55:22.485Z,2.50
2022-07-27T18:57:59.310Z,2.25
2022-07-27T19:00:30.339Z,3.00
2022-07-27T19:03:00.315Z,4.00
2022-07-27T19:05:40.766Z,3.00
2022-07-27T19:08:13.275Z,3.25
2022-07-27T19:10:44.293Z,3.25
2022-07-27T19:13:14.004Z,2.50
2022-07-27T19:15:43.443Z,3.00
2022-07-27T19:18:12.826Z,3.00
2022-07-27T19:20:42.780Z,2.00
2022-07-27T19:23:13.481Z,2.00
2022-07-27T19:25:43.558Z,2.25
2022-07-27T19:28:15.629Z,2.75
2022-07-27T19:30:45.155Z,3.50
2022-07-27T19:33:14.595Z,2.00
2022-07-27T19:35:44.201Z,2.75
2022-07-27T19:38:14.410Z,3.00
2022-07-27T19:40:46.003Z,3.25
2022-07-27T19:43:16.473Z,2.50
2022-07-27T19:45:46.018Z,3.00
2022-07-27T19:48:15.348Z,3.75
2022-07-27T19:50:45.790Z,2.50
2022-07-27T19:53:15.164Z,3.75
2022-07-27T19:55:44.694Z,2.50
2022-07-27T19:58:14.053Z,7.00
2022-07-27T20:00:43.407Z,4.50
2022-07-27T20:03:12.855Z,6.00
2022-07-27T20:05:42.240Z,4.75
2022-07-27T20:08:11.737Z,5.00
2022-07-27T20:10:41.780Z,6.00
2022-07-27T20:13:11.339Z,5.50
2022-07-27T20:15:40.723Z,6.00
2022-07-27T20:18:10.059Z,6.00
2022-07-27T20:20:39.402Z,4.75
2022-07-27T20:23:08.767Z,5.00
2022-07-27T20:25:39.619Z,4.25
2022-07-27T20:28:09.721Z,4.75
2022-07-27T20:30:39.129Z,5.75
2022-07-27T20:33:08.492Z,3.50
2022-07-27T20:35:38.040Z,3.75
2022-07-27T20:38:07.511Z,4.50
2022-07-27T20:40:36.824Z,3.75
2022-07-27T20:43:06.118Z,4.25
2022-07-27T20:45:35.523Z,3.25
2022-07-27T20:48:04.943Z,3.75
2022-07-27T20:50:34.416Z,4.50
2022-07-27T20:53:06.408Z,3.50
2022-07-27T20:55:36.333Z,3.75
2022-07-27T20:58:05.737Z,5.00
2022-07-27T21:00:35.062Z,3.75
2022-07-27T21:03:04.533Z,3.50
2022-07-27T21:05:35.247Z,4.75
2022-07-27T21:08:04.681Z,3.00
2022-07-27T21:10:34.039Z,3.00
2022-07-27T21:13:03.493Z,3.00
2022-07-27T21:15:33.837Z,4.00
2022-07-27T21:18:04.183Z,2.75
2022-07-27T21:20:33.581Z,2.75
2022-07-27T21:23:21.197Z,4.00
2022-07-27T21:25:50.574Z,3.25
2022-07-27T21:28:24.733Z,3.00
2022-07-27T21:30:54.297Z,2.00
2022-07-27T21:33:23.674Z,2.75
2022-07-27T21:35:53.129Z,3.75
2022-07-27T21:38:22.645Z,2.50
2022-07-27T21:40:52.364Z,2.25
2022-07-27T21:43:22.510Z,3.50
2022-07-27T21:45:52.147Z,4.00
2022-07-27T21:48:21.496Z,2.00
2022-07-27T21:50:50.843Z,2.00
2022-07-27T21:53:20.613Z,1.00
2022-07-27T21:55:49.947Z,2.00
2022-07-27T21:58:19.245Z,2.00
2022-07-27T22:00:48.614Z,3.50
2022-07-27T22:03:18.725Z,2.75
2022-07-27T22:05:48.474Z,2.00
2022-07-27T22:08:17.772Z,2.25
2022-07-27T22:10:47.071Z,4.00
2022-07-27T22:13:16.486Z,2.00
2022-07-27T22:15:45.858Z,2.50
2022-07-27T22:18:15.209Z,3.00
2022-07-27T22:20:44.510Z,3.00
2022-07-27T22:23:13.818Z,3.00
2022-07-27T22:25:43.215Z,3.00
2022-07-27T22:28:12.552Z,3.25
2022-07-27T22:30:41.884Z,2.00
2022-07-27T22:33:11.224Z,2.75
2022-07-27T22:35:40.674Z,1.25
2022-07-27T22:38:10.090Z,3.00
2022-07-27T22:40:39.448Z,3.00
2022-07-27T22:43:08.825Z,3.75
2022-07-27T22:45:39.095Z,1.50
2022-07-27T22:48:09.079Z,2.00
2022-07-27T22:50:38.393Z,2.25
2022-07-27T22:53:07.690Z,2.75
2022-07-27T22:55:39.219Z,2.75
2022-07-27T22:58:08.749Z,3.25
2022-07-27T23:00:38.411Z,2.25
2022-07-27T23:03:08.194Z,3.50
2022-07-27T23:05:37.618Z,2.25
2022-07-27T23:08:07.205Z,3.00
2022-07-27T23:10:48.447Z,3.00
2022-07-27T23:13:18.828Z,2.25
2022-07-27T23:15:48.659Z,3.00
2022-07-27T23:18:18.814Z,3.00
2022-07-27T23:20:48.170Z,3.00
2022-07-27T23:23:17.547Z,2.50
2022-07-27T23:25:47.349Z,4.00
2022-07-27T23:28:17.067Z,4.25
2022-07-27T23:30:46.491Z,3.25
2022-07-27T23:33:15.876Z,3.00
2022-07-27T23:35:45.611Z,4.75
2022-07-27T23:38:15.051Z,4.75
2022-07-27T23:40:44.418Z,4.00
2022-07-27T23:43:13.846Z,2.50
2022-07-27T23:45:43.302Z,3.50
2022-07-27T23:48:12.643Z,3.75
2022-07-27T23:50:42.032Z,4.00
2022-07-27T23:53:11.474Z,4.00
2022-07-27T23:55:40.923Z,5.00
2022-07-27T23:58:10.340Z,3.50
